sensor_id;sensor_type;location;lat;lon;timestamp;P1;durP1;ratioP1;P2;durP2;ratioP2
9032;SDS011;4551;53.164;8.210;2022-07-03T00:01:38;2.67;;;2.00;;
9032;SDS011;4551;53.164;8.210;2022-07-03T00:04:07;4.87;;;2.10;;
9032;SDS011;4551;53.164;8.210;2022-07-03T00:06:36;2.37;;;1.80;;
9032;SDS011;4551;53.164;8.210;2022-07-03T00:09:04;2.77;;;1.60;;
9032;SDS011;4551;53.164;8.210;2022-07-03T00:11:33;3.73;;;1.97;;
9032;SDS011;4551;53.164;8.210;2022-07-03T00:14:01;2.20;;;2.00;;
9032;SDS011;4551;53.164;8.210;2022-07-03T00:16:30;3.13;;;2.00;;
9032;SDS011;4551;53.164;8.210;2022-07-03T00:18:58;4.83;;;1.90;;
9032;SDS011;4551;53.164;8.210;2022-07-03T00:21:29;1.97;;;1.73;;
9032;SDS011;4551;53.164;8.210;2022-07-03T00:24:02;2.37;;;2.00;;
9032;SDS011;4551;53.164;8.210;2022-07-03T00:26:33;2.23;;;2.00;;
9032;SDS011;4551;53.164;8.210;2022-07-03T00:29:04;3.30;;;2.30;;
9032;SDS011;4551;53.164;8.210;2022-07-03T00:31:35;3.60;;;2.20;;
9032;SDS011;4551;53.164;8.210;2022-07-03T00:34:03;2.23;;;2.13;;
9032;SDS011;4551;53.164;8.210;2022-07-03T00:36:37;2.27;;;2.07;;
9032;SDS011;4551;53.164;8.210;2022-07-03T00:39:05;2.20;;;1.90;;
9032;SDS011;4551;53.164;8.210;2022-07-03T00:41:34;3.90;;;2.00;;
9032;SDS011;4551;53.164;8.210;2022-07-03T00:44:03;2.13;;;1.93;;
9032;SDS011;4551;53.164;8.210;2022-07-03T00:46:31;2.97;;;2.20;;
9032;SDS011;4551;53.164;8.210;2022-07-03T00:49:04;2.07;;;1.80;;
9032;SDS011;4551;53.164;8.210;2022-07-03T00:51:38;2.33;;;2.10;;
9032;SDS011;4551;53.164;8.210;2022-07-03T00:54:09;2.10;;;1.90;;
9032;SDS011;4551;53.164;8.210;2022-07-03T00:56:38;5.07;;;2.43;;
9032;SDS011;4551;53.164;8.210;2022-07-03T00:59:07;4.87;;;2.40;;
9032;SDS011;4551;53.164;8.210;2022-07-03T01:01:36;3.53;;;2.20;;
9032;SDS011;4551;53.164;8.210;2022-07-03T01:04:17;3.83;;;2.40;;
9032;SDS011;4551;53.164;8.210;2022-07-03T01:06:53;3.73;;;2.47;;
9032;SDS011;4551;53.164;8.210;2022-07-03T01:09:34;2.77;;;2.13;;
9032;SDS011;4551;53.164;8.210;2022-07-03T01:12:13;5.50;;;2.63;;
9032;SDS011;4551;53.164;8.210;2022-07-03T01:14:52;4.07;;;2.07;;
9032;SDS011;4551;53.164;8.210;2022-07-03T01:17:34;2.80;;;2.23;;
9032;SDS011;4551;53.164;8.210;2022-07-03T01:20:06;2.57;;;2.37;;
9032;SDS011;4551;53.164;8.210;2022-07-03T01:22:37;3.73;;;2.33;;
9032;SDS011;4551;53.164;8.210;2022-07-03T01:25:14;2.50;;;2.30;;
9032;SDS011;4551;53.164;8.210;2022-07-03T01:27:49;3.23;;;2.17;;
9032;SDS011;4551;53.164;8.210;2022-07-03T01:30:26;2.60;;;2.40;;
9032;SDS011;4551;53.164;8.210;2022-07-03T01:32:58;2.87;;;2.40;;
9032;SDS011;4551;53.164;8.210;2022-07-03T01:35:32;3.33;;;2.47;;
9032;SDS011;4551;53.164;8.210;2022-07-03T01:38:03;2.20;;;2.10;;
9032;SDS011;4551;53.164;8.210;2022-07-03T01:40:33;2.33;;;2.03;;
9032;SDS011;4551;53.164;8.210;2022-07-03T01:43:05;2.57;;;2.37;;
9032;SDS011;4551;53.164;8.210;2022-07-03T01:45:36;2.13;;;2.03;;
9032;SDS011;4551;53.164;8.210;2022-07-03T01:48:07;2.50;;;2.30;;
9032;SDS011;4551;53.164;8.210;2022-07-03T01:50:36;3.33;;;2.20;;
9032;SDS011;4551;53.164;8.210;2022-07-03T01:53:06;6.20;;;2.43;;
9032;SDS011;4551;53.164;8.210;2022-07-03T01:55:38;3.07;;;2.40;;
9032;SDS011;4551;53.164;8.210;2022-07-03T01:58:08;3.03;;;2.27;;
9032;SDS011;4551;53.164;8.210;2022-07-03T02:00:40;2.97;;;2.37;;
9032;SDS011;4551;53.164;8.210;2022-07-03T02:03:14;2.50;;;2.30;;
9032;SDS011;4551;53.164;8.210;2022-07-03T02:05:52;3.87;;;2.43;;
9032;SDS011;4551;53.164;8.210;2022-07-03T02:08:29;3.33;;;2.63;;
9032;SDS011;4551;53.164;8.210;2022-07-03T02:11:11;3.30;;;2.90;;
9032;SDS011;4551;53.164;8.210;2022-07-03T02:13:51;3.17;;;2.90;;
9032;SDS011;4551;53.164;8.210;2022-07-03T02:16:24;2.40;;;2.30;;
9032;SDS011;4551;53.164;8.210;2022-07-03T02:18:56;2.90;;;2.70;;
9032;SDS011;4551;53.164;8.210;2022-07-03T02:21:26;2.83;;;2.60;;
9032;SDS011;4551;53.164;8.210;2022-07-03T02:24:01;3.40;;;2.73;;
9032;SDS011;4551;53.164;8.210;2022-07-03T02:26:40;4.57;;;3.27;;
9032;SDS011;4551;53.164;8.210;2022-07-03T02:29:12;4.03;;;3.50;;
9032;SDS011;4551;53.164;8.210;2022-07-03T02:31:43;3.33;;;3.03;;
9032;SDS011;4551;53.164;8.210;2022-07-03T02:34:14;3.40;;;3.07;;
9032;SDS011;4551;53.164;8.210;2022-07-03T02:36:45;5.80;;;2.37;;
9032;SDS011;4551;53.164;8.210;2022-07-03T02:39:27;3.27;;;2.60;;
9032;SDS011;4551;53.164;8.210;2022-07-03T02:42:02;3.50;;;2.80;;
9032;SDS011;4551;53.164;8.210;2022-07-03T02:44:40;3.33;;;3.03;;
9032;SDS011;4551;53.164;8.210;2022-07-03T02:47:14;3.40;;;2.90;;
9032;SDS011;4551;53.164;8.210;2022-07-03T02:49:51;2.60;;;2.20;;
9032;SDS011;4551;53.164;8.210;2022-07-03T02:52:30;3.53;;;3.20;;
9032;SDS011;4551;53.164;8.210;2022-07-03T02:55:04;4.13;;;2.83;;
9032;SDS011;4551;53.164;8.210;2022-07-03T02:57:39;4.17;;;3.80;;
9032;SDS011;4551;53.164;8.210;2022-07-03T03:00:11;4.13;;;3.47;;
9032;SDS011;4551;53.164;8.210;2022-07-03T03:02:51;5.93;;;3.27;;
9032;SDS011;4551;53.164;8.210;2022-07-03T03:05:34;2.97;;;2.73;;
9032;SDS011;4551;53.164;8.210;2022-07-03T03:08:10;2.80;;;2.60;;
9032;SDS011;4551;53.164;8.210;2022-07-03T03:10:40;2.30;;;2.20;;
9032;SDS011;4551;53.164;8.210;2022-07-03T03:13:09;2.77;;;2.47;;
9032;SDS011;4551;53.164;8.210;2022-07-03T03:15:42;2.70;;;2.50;;
9032;SDS011;4551;53.164;8.210;2022-07-03T03:18:16;3.13;;;2.60;;
9032;SDS011;4551;53.164;8.210;2022-07-03T03:20:49;2.40;;;2.30;;
9032;SDS011;4551;53.164;8.210;2022-07-03T03:23:24;2.70;;;2.50;;
9032;SDS011;4551;53.164;8.210;2022-07-03T03:26:02;2.77;;;2.30;;
9032;SDS011;4551;53.164;8.210;2022-07-03T03:28:30;2.57;;;2.37;;
9032;SDS011;4551;53.164;8.210;2022-07-03T03:31:00;2.63;;;2.43;;
9032;SDS011;4551;53.164;8.210;2022-07-03T03:33:30;4.33;;;2.33;;
9032;SDS011;4551;53.164;8.210;2022-07-03T03:35:59;2.40;;;2.20;;
9032;SDS011;4551;53.164;8.210;2022-07-03T03:38:27;4.50;;;2.70;;
9032;SDS011;4551;53.164;8.210;2022-07-03T03:40:55;2.53;;;2.37;;
9032;SDS011;4551;53.164;8.210;2022-07-03T03:43:24;2.20;;;2.10;;
9032;SDS011;4551;53.164;8.210;2022-07-03T03:45:52;3.33;;;2.77;;
9032;SDS011;4551;53.164;8.210;2022-07-03T03:48:22;3.43;;;2.80;;
9032;SDS011;4551;53.164;8.210;2022-07-03T03:50:50;2.63;;;2.43;;
9032;SDS011;4551;53.164;8.210;2022-07-03T03:53:21;6.67;;;3.33;;
9032;SDS011;4551;53.164;8.210;2022-07-03T03:55:52;3.80;;;2.60;;
9032;SDS011;4551;53.164;8.210;2022-07-03T03:58:21;3.17;;;2.83;;
9032;SDS011;4551;53.164;8.210;2022-07-03T04:00:49;3.87;;;2.57;;
9032;SDS011;4551;53.164;8.210;2022-07-03T04:03:19;2.83;;;2.60;;
9032;SDS011;4551;53.164;8.210;2022-07-03T04:05:49;3.00;;;2.17;;
9032;SDS011;4551;53.164;8.210;2022-07-03T04:08:17;3.17;;;2.50;;
9032;SDS011;4551;53.164;8.210;2022-07-03T04:10:45;2.77;;;2.57;;
9032;SDS011;4551;53.164;8.210;2022-07-03T04:13:14;3.23;;;2.30;;
9032;SDS011;4551;53.164;8.210;2022-07-03T04:15:42;2.70;;;2.50;;
9032;SDS011;4551;53.164;8.210;2022-07-03T04:18:11;3.10;;;2.90;;
9032;SDS011;4551;53.164;8.210;2022-07-03T04:20:39;2.47;;;2.27;;
9032;SDS011;4551;53.164;8.210;2022-07-03T04:23:09;3.60;;;2.57;;
9032;SDS011;4551;53.164;8.210;2022-07-03T04:25:37;2.37;;;2.27;;
9032;SDS011;4551;53.164;8.210;2022-07-03T04:28:06;2.83;;;2.40;;
9032;SDS011;4551;53.164;8.210;2022-07-03T04:30:45;3.27;;;3.07;;
9032;SDS011;4551;53.164;8.210;2022-07-03T04:33:13;4.13;;;3.07;;
9032;SDS011;4551;53.164;8.210;2022-07-03T04:35:42;3.23;;;2.80;;
9032;SDS011;4551;53.164;8.210;2022-07-03T04:38:11;2.23;;;2.13;;
9032;SDS011;4551;53.164;8.210;2022-07-03T04:40:40;2.97;;;2.77;;
9032;SDS011;4551;53.164;8.210;2022-07-03T04:43:08;3.03;;;2.70;;
9032;SDS011;4551;53.164;8.210;2022-07-03T04:45:36;4.60;;;2.70;;
9032;SDS011;4551;53.164;8.210;2022-07-03T04:48:04;2.83;;;2.63;;
9032;SDS011;4551;53.164;8.210;2022-07-03T04:50:33;3.03;;;2.80;;
9032;SDS011;4551;53.164;8.210;2022-07-03T04:53:01;3.00;;;2.80;;
9032;SDS011;4551;53.164;8.210;2022-07-03T04:55:30;4.00;;;2.63;;
9032;SDS011;4551;53.164;8.210;2022-07-03T04:57:58;3.40;;;2.93;;
9032;SDS011;4551;53.164;8.210;2022-07-03T05:00:27;2.87;;;2.67;;
9032;SDS011;4551;53.164;8.210;2022-07-03T05:02:55;4.17;;;2.73;;
9032;SDS011;4551;53.164;8.210;2022-07-03T05:05:23;3.63;;;3.33;;
9032;SDS011;4551;53.164;8.210;2022-07-03T05:07:51;3.83;;;3.43;;
9032;SDS011;4551;53.164;8.210;2022-07-03T05:10:19;3.80;;;3.50;;
9032;SDS011;4551;53.164;8.210;2022-07-03T05:12:49;3.47;;;3.23;;
9032;SDS011;4551;53.164;8.210;2022-07-03T05:15:17;3.43;;;3.07;;
9032;SDS011;4551;53.164;8.210;2022-07-03T05:17:46;3.23;;;2.93;;
9032;SDS011;4551;53.164;8.210;2022-07-03T05:20:14;3.40;;;3.10;;
9032;SDS011;4551;53.164;8.210;2022-07-03T05:22:54;3.40;;;3.10;;
9032;SDS011;4551;53.164;8.210;2022-07-03T05:25:24;2.93;;;2.67;;
9032;SDS011;4551;53.164;8.210;2022-07-03T05:27:54;3.43;;;3.17;;
9032;SDS011;4551;53.164;8.210;2022-07-03T05:30:23;3.20;;;2.90;;
9032;SDS011;4551;53.164;8.210;2022-07-03T05:32:52;3.43;;;3.23;;
9032;SDS011;4551;53.164;8.210;2022-07-03T05:35:24;3.90;;;3.60;;
9032;SDS011;4551;53.164;8.210;2022-07-03T05:37:52;3.83;;;2.80;;
9032;SDS011;4551;53.164;8.210;2022-07-03T05:40:20;3.03;;;2.83;;
9032;SDS011;4551;53.164;8.210;2022-07-03T05:42:47;3.77;;;3.13;;
9032;SDS011;4551;53.164;8.210;2022-07-03T05:45:17;3.63;;;2.50;;
9032;SDS011;4551;53.164;8.210;2022-07-03T05:47:45;2.70;;;2.43;;
9032;SDS011;4551;53.164;8.210;2022-07-03T05:50:13;2.67;;;2.47;;
9032;SDS011;4551;53.164;8.210;2022-07-03T05:52:42;2.93;;;2.60;;
9032;SDS011;4551;53.164;8.210;2022-07-03T05:55:10;4.43;;;2.23;;
9032;SDS011;4551;53.164;8.210;2022-07-03T05:57:38;2.43;;;2.23;;
9032;SDS011;4551;53.164;8.210;2022-07-03T06:00:06;2.70;;;2.20;;
9032;SDS011;4551;53.164;8.210;2022-07-03T06:02:37;5.60;;;2.67;;
9032;SDS011;4551;53.164;8.210;2022-07-03T06:05:05;2.40;;;2.00;;
9032;SDS011;4551;53.164;8.210;2022-07-03T06:07:33;5.00;;;2.03;;
9032;SDS011;4551;53.164;8.210;2022-07-03T06:10:02;2.03;;;1.93;;
9032;SDS011;4551;53.164;8.210;2022-07-03T06:12:31;2.33;;;1.87;;
9032;SDS011;4551;53.164;8.210;2022-07-03T06:14:59;1.87;;;1.77;;
9032;SDS011;4551;53.164;8.210;2022-07-03T06:17:28;2.10;;;1.83;;
9032;SDS011;4551;53.164;8.210;2022-07-03T06:19:58;2.57;;;1.57;;
9032;SDS011;4551;53.164;8.210;2022-07-03T06:22:26;2.10;;;2.00;;
9032;SDS011;4551;53.164;8.210;2022-07-03T06:24:54;3.13;;;1.90;;
9032;SDS011;4551;53.164;8.210;2022-07-03T06:27:22;3.30;;;2.00;;
9032;SDS011;4551;53.164;8.210;2022-07-03T06:29:50;4.37;;;1.77;;
9032;SDS011;4551;53.164;8.210;2022-07-03T06:32:18;2.27;;;1.93;;
9032;SDS011;4551;53.164;8.210;2022-07-03T06:34:47;1.47;;;1.37;;
9032;SDS011;4551;53.164;8.210;2022-07-03T06:37:17;4.47;;;1.43;;
9032;SDS011;4551;53.164;8.210;2022-07-03T06:39:45;1.60;;;1.50;;
9032;SDS011;4551;53.164;8.210;2022-07-03T06:42:13;2.20;;;1.50;;
9032;SDS011;4551;53.164;8.210;2022-07-03T06:44:41;1.90;;;1.63;;
9032;SDS011;4551;53.164;8.210;2022-07-03T06:47:17;2.30;;;1.40;;
9032;SDS011;4551;53.164;8.210;2022-07-03T06:49:45;2.20;;;1.50;;
9032;SDS011;4551;53.164;8.210;2022-07-03T06:52:13;2.63;;;1.67;;
9032;SDS011;4551;53.164;8.210;2022-07-03T06:54:43;4.63;;;1.67;;
9032;SDS011;4551;53.164;8.210;2022-07-03T06:57:11;3.03;;;1.60;;
9032;SDS011;4551;53.164;8.210;2022-07-03T06:59:39;2.17;;;1.53;;
9032;SDS011;4551;53.164;8.210;2022-07-03T07:02:09;3.03;;;1.80;;
9032;SDS011;4551;53.164;8.210;2022-07-03T07:04:37;3.00;;;1.90;;
9032;SDS011;4551;53.164;8.210;2022-07-03T07:07:05;2.00;;;1.80;;
9032;SDS011;4551;53.164;8.210;2022-07-03T07:09:34;2.43;;;2.00;;
9032;SDS011;4551;53.164;8.210;2022-07-03T07:12:04;2.97;;;1.90;;
9032;SDS011;4551;53.164;8.210;2022-07-03T07:14:33;2.67;;;1.60;;
9032;SDS011;4551;53.164;8.210;2022-07-03T07:17:01;2.07;;;1.90;;
9032;SDS011;4551;53.164;8.210;2022-07-03T07:19:29;1.80;;;1.70;;
9032;SDS011;4551;53.164;8.210;2022-07-03T07:21:57;2.90;;;1.80;;
9032;SDS011;4551;53.164;8.210;2022-07-03T07:24:27;3.07;;;1.50;;
9032;SDS011;4551;53.164;8.210;2022-07-03T07:26:55;2.83;;;1.97;;
9032;SDS011;4551;53.164;8.210;2022-07-03T07:29:25;2.40;;;1.57;;
9032;SDS011;4551;53.164;8.210;2022-07-03T07:31:53;2.13;;;1.50;;
9032;SDS011;4551;53.164;8.210;2022-07-03T07:34:21;2.60;;;1.77;;
9032;SDS011;4551;53.164;8.210;2022-07-03T07:36:49;2.67;;;2.00;;
9032;SDS011;4551;53.164;8.210;2022-07-03T07:39:17;2.37;;;2.20;;
9032;SDS011;4551;53.164;8.210;2022-07-03T07:41:46;2.03;;;1.93;;
9032;SDS011;4551;53.164;8.210;2022-07-03T07:44:14;2.13;;;1.83;;
9032;SDS011;4551;53.164;8.210;2022-07-03T07:46:47;2.13;;;1.90;;
9032;SDS011;4551;53.164;8.210;2022-07-03T07:49:16;2.53;;;2.33;;
9032;SDS011;4551;53.164;8.210;2022-07-03T07:51:44;3.20;;;2.70;;
9032;SDS011;4551;53.164;8.210;2022-07-03T07:54:12;2.30;;;2.10;;
9032;SDS011;4551;53.164;8.210;2022-07-03T07:56:40;4.10;;;2.13;;
9032;SDS011;4551;53.164;8.210;2022-07-03T07:59:09;3.43;;;2.27;;
9032;SDS011;4551;53.164;8.210;2022-07-03T08:01:37;2.10;;;2.00;;
9032;SDS011;4551;53.164;8.210;2022-07-03T08:04:23;2.70;;;1.63;;
9032;SDS011;4551;53.164;8.210;2022-07-03T08:07:09;1.73;;;1.40;;
9032;SDS011;4551;53.164;8.210;2022-07-03T08:09:37;2.20;;;1.80;;
9032;SDS011;4551;53.164;8.210;2022-07-03T08:12:06;3.80;;;1.70;;
9032;SDS011;4551;53.164;8.210;2022-07-03T08:14:34;3.37;;;1.77;;
9032;SDS011;4551;53.164;8.210;2022-07-03T08:17:02;3.67;;;1.70;;
9032;SDS011;4551;53.164;8.210;2022-07-03T08:19:32;2.27;;;1.70;;
9032;SDS011;4551;53.164;8.210;2022-07-03T08:22:00;2.20;;;1.80;;
9032;SDS011;4551;53.164;8.210;2022-07-03T08:24:28;1.70;;;1.60;;
9032;SDS011;4551;53.164;8.210;2022-07-03T08:26:57;1.73;;;1.63;;
9032;SDS011;4551;53.164;8.210;2022-07-03T08:29:25;1.87;;;1.77;;
9032;SDS011;4551;53.164;8.210;2022-07-03T08:32:01;1.80;;;1.70;;
9032;SDS011;4551;53.164;8.210;2022-07-03T08:34:30;2.27;;;1.70;;
9032;SDS011;4551;53.164;8.210;2022-07-03T08:36:59;3.50;;;2.20;;
9032;SDS011;4551;53.164;8.210;2022-07-03T08:39:27;5.73;;;2.40;;
9032;SDS011;4551;53.164;8.210;2022-07-03T08:41:55;2.90;;;2.17;;
9032;SDS011;4551;53.164;8.210;2022-07-03T08:44:24;1.80;;;1.70;;
9032;SDS011;4551;53.164;8.210;2022-07-03T08:46:54;2.40;;;1.87;;
9032;SDS011;4551;53.164;8.210;2022-07-03T08:49:24;2.47;;;2.10;;
9032;SDS011;4551;53.164;8.210;2022-07-03T08:51:53;5.00;;;2.23;;
9032;SDS011;4551;53.164;8.210;2022-07-03T08:54:24;1.87;;;1.57;;
9032;SDS011;4551;53.164;8.210;2022-07-03T08:56:52;2.57;;;2.20;;
9032;SDS011;4551;53.164;8.210;2022-07-03T08:59:21;3.37;;;2.87;;
9032;SDS011;4551;53.164;8.210;2022-07-03T09:01:51;2.20;;;2.10;;
9032;SDS011;4551;53.164;8.210;2022-07-03T09:04:20;2.87;;;1.97;;
9032;SDS011;4551;53.164;8.210;2022-07-03T09:06:49;2.10;;;2.00;;
9032;SDS011;4551;53.164;8.210;2022-07-03T09:09:23;2.37;;;2.10;;
9032;SDS011;4551;53.164;8.210;2022-07-03T09:11:51;2.10;;;1.93;;
9032;SDS011;4551;53.164;8.210;2022-07-03T09:14:19;1.83;;;1.73;;
9032;SDS011;4551;53.164;8.210;2022-07-03T09:16:48;2.50;;;2.30;;
9032;SDS011;4551;53.164;8.210;2022-07-03T09:19:19;4.43;;;2.07;;
9032;SDS011;4551;53.164;8.210;2022-07-03T09:22:13;3.03;;;2.00;;
9032;SDS011;4551;53.164;8.210;2022-07-03T09:24:48;5.33;;;2.27;;
9032;SDS011;4551;53.164;8.210;2022-07-03T09:27:17;1.73;;;1.63;;
9032;SDS011;4551;53.164;8.210;2022-07-03T09:29:50;3.83;;;1.70;;
9032;SDS011;4551;53.164;8.210;2022-07-03T09:32:23;3.23;;;2.40;;
9032;SDS011;4551;53.164;8.210;2022-07-03T09:37:47;2.47;;;2.13;;
9032;SDS011;4551;53.164;8.210;2022-07-03T09:40:18;4.43;;;2.03;;
9032;SDS011;4551;53.164;8.210;2022-07-03T09:42:59;2.10;;;1.70;;
9032;SDS011;4551;53.164;8.210;2022-07-03T09:45:48;3.43;;;1.70;;
9032;SDS011;4551;53.164;8.210;2022-07-03T09:48:20;2.83;;;1.50;;
9032;SDS011;4551;53.164;8.210;2022-07-03T09:51:13;1.67;;;1.13;;
9032;SDS011;4551;53.164;8.210;2022-07-03T09:53:44;3.07;;;1.70;;
9032;SDS011;4551;53.164;8.210;2022-07-03T09:56:22;3.37;;;1.63;;
9032;SDS011;4551;53.164;8.210;2022-07-03T09:58:59;3.03;;;1.67;;
9032;SDS011;4551;53.164;8.210;2022-07-03T10:01:32;2.17;;;1.40;;
9032;SDS011;4551;53.164;8.210;2022-07-03T10:04:14;2.00;;;1.50;;
9032;SDS011;4551;53.164;8.210;2022-07-03T10:06:47;2.00;;;1.60;;
9032;SDS011;4551;53.164;8.210;2022-07-03T10:09:20;1.40;;;1.30;;
9032;SDS011;4551;53.164;8.210;2022-07-03T10:11:51;3.40;;;1.40;;
9032;SDS011;4551;53.164;8.210;2022-07-03T10:14:21;2.00;;;1.00;;
9032;SDS011;4551;53.164;8.210;2022-07-03T10:16:50;1.33;;;1.20;;
9032;SDS011;4551;53.164;8.210;2022-07-03T10:19:19;1.43;;;1.33;;
9032;SDS011;4551;53.164;8.210;2022-07-03T10:21:49;2.80;;;1.20;;
9032;SDS011;4551;53.164;8.210;2022-07-03T10:24:21;2.27;;;1.20;;
9032;SDS011;4551;53.164;8.210;2022-07-03T10:26:52;1.77;;;1.03;;
9032;SDS011;4551;53.164;8.210;2022-07-03T10:29:22;1.03;;;0.93;;
9032;SDS011;4551;53.164;8.210;2022-07-03T10:31:55;2.73;;;1.07;;
9032;SDS011;4551;53.164;8.210;2022-07-03T10:34:24;2.53;;;1.30;;
9032;SDS011;4551;53.164;8.210;2022-07-03T10:36:55;1.63;;;1.10;;
9032;SDS011;4551;53.164;8.210;2022-07-03T10:39:30;3.87;;;1.00;;
9032;SDS011;4551;53.164;8.210;2022-07-03T10:42:19;1.70;;;1.23;;
9032;SDS011;4551;53.164;8.210;2022-07-03T10:45:12;2.50;;;1.20;;
9032;SDS011;4551;53.164;8.210;2022-07-03T10:47:44;1.20;;;1.10;;
9032;SDS011;4551;53.164;8.210;2022-07-03T10:50:13;1.67;;;0.97;;
9032;SDS011;4551;53.164;8.210;2022-07-03T10:52:44;1.30;;;1.13;;
9032;SDS011;4551;53.164;8.210;2022-07-03T10:55:13;1.67;;;1.13;;
9032;SDS011;4551;53.164;8.210;2022-07-03T10:57:43;1.53;;;1.43;;
9032;SDS011;4551;53.164;8.210;2022-07-03T11:00:51;2.50;;;1.10;;
9032;SDS011;4551;53.164;8.210;2022-07-03T11:03:50;1.33;;;1.20;;
9032;SDS011;4551;53.164;8.210;2022-07-03T11:06:21;1.93;;;1.20;;
9032;SDS011;4551;53.164;8.210;2022-07-03T11:09:04;2.00;;;1.50;;
9032;SDS011;4551;53.164;8.210;2022-07-03T11:11:33;1.30;;;1.20;;
9032;SDS011;4551;53.164;8.210;2022-07-03T11:14:27;1.80;;;1.50;;
9032;SDS011;4551;53.164;8.210;2022-07-03T11:19:46;2.40;;;1.23;;
9032;SDS011;4551;53.164;8.210;2022-07-03T11:22:29;3.00;;;1.47;;
9032;SDS011;4551;53.164;8.210;2022-07-03T11:25:03;3.40;;;1.60;;
9032;SDS011;4551;53.164;8.210;2022-07-03T11:27:35;2.27;;;1.47;;
9032;SDS011;4551;53.164;8.210;2022-07-03T11:30:05;2.10;;;1.20;;
9032;SDS011;4551;53.164;8.210;2022-07-03T11:32:47;1.10;;;1.10;;
9032;SDS011;4551;53.164;8.210;2022-07-03T11:38:28;1.20;;;1.13;;
9032;SDS011;4551;53.164;8.210;2022-07-03T11:40:58;1.67;;;1.10;;
9032;SDS011;4551;53.164;8.210;2022-07-03T11:43:27;1.03;;;0.93;;
9032;SDS011;4551;53.164;8.210;2022-07-03T11:45:57;1.40;;;1.00;;
9032;SDS011;4551;53.164;8.210;2022-07-03T11:48:26;1.93;;;1.00;;
9032;SDS011;4551;53.164;8.210;2022-07-03T11:50:59;1.60;;;1.07;;
9032;SDS011;4551;53.164;8.210;2022-07-03T11:53:29;2.03;;;1.00;;
9032;SDS011;4551;53.164;8.210;2022-07-03T11:55:59;1.73;;;1.30;;
9032;SDS011;4551;53.164;8.210;2022-07-03T11:58:41;0.87;;;0.87;;
9032;SDS011;4551;53.164;8.210;2022-07-03T12:01:27;1.53;;;0.97;;
9032;SDS011;4551;53.164;8.210;2022-07-03T12:04:04;2.80;;;1.10;;
9032;SDS011;4551;53.164;8.210;2022-07-03T12:06:34;1.83;;;1.17;;
9032;SDS011;4551;53.164;8.210;2022-07-03T12:09:10;1.13;;;1.00;;
9032;SDS011;4551;53.164;8.210;2022-07-03T12:11:39;1.67;;;1.23;;
9032;SDS011;4551;53.164;8.210;2022-07-03T12:14:08;5.20;;;1.73;;
9032;SDS011;4551;53.164;8.210;2022-07-03T12:16:37;1.17;;;1.03;;
9032;SDS011;4551;53.164;8.210;2022-07-03T12:19:06;1.97;;;1.10;;
9032;SDS011;4551;53.164;8.210;2022-07-03T12:21:37;1.93;;;1.17;;
9032;SDS011;4551;53.164;8.210;2022-07-03T12:24:10;1.77;;;1.10;;
9032;SDS011;4551;53.164;8.210;2022-07-03T12:26:39;2.27;;;1.37;;
9032;SDS011;4551;53.164;8.210;2022-07-03T12:29:08;1.97;;;1.20;;
9032;SDS011;4551;53.164;8.210;2022-07-03T12:31:39;1.43;;;1.30;;
9032;SDS011;4551;53.164;8.210;2022-07-03T12:34:09;2.83;;;1.13;;
9032;SDS011;4551;53.164;8.210;2022-07-03T12:36:38;1.53;;;1.30;;
9032;SDS011;4551;53.164;8.210;2022-07-03T12:39:07;1.40;;;1.17;;
9032;SDS011;4551;53.164;8.210;2022-07-03T12:41:35;1.57;;;1.10;;
9032;SDS011;4551;53.164;8.210;2022-07-03T12:44:03;2.33;;;1.27;;
9032;SDS011;4551;53.164;8.210;2022-07-03T12:46:33;1.50;;;1.40;;
9032;SDS011;4551;53.164;8.210;2022-07-03T12:49:08;2.73;;;1.90;;
9032;SDS011;4551;53.164;8.210;2022-07-03T12:51:42;1.50;;;1.40;;
9032;SDS011;4551;53.164;8.210;2022-07-03T12:54:11;1.50;;;1.40;;
9032;SDS011;4551;53.164;8.210;2022-07-03T12:56:41;2.20;;;1.90;;
9032;SDS011;4551;53.164;8.210;2022-07-03T12:59:25;3.20;;;1.73;;
9032;SDS011;4551;53.164;8.210;2022-07-03T13:02:00;1.60;;;1.50;;
9032;SDS011;4551;53.164;8.210;2022-07-03T13:04:31;1.67;;;1.27;;
9032;SDS011;4551;53.164;8.210;2022-07-03T13:07:00;1.87;;;1.77;;
9032;SDS011;4551;53.164;8.210;2022-07-03T13:09:29;4.17;;;2.60;;
9032;SDS011;4551;53.164;8.210;2022-07-03T13:11:58;1.60;;;1.50;;
9032;SDS011;4551;53.164;8.210;2022-07-03T13:14:27;1.87;;;1.77;;
9032;SDS011;4551;53.164;8.210;2022-07-03T13:16:55;3.97;;;1.70;;
9032;SDS011;4551;53.164;8.210;2022-07-03T13:19:25;1.93;;;1.60;;
9032;SDS011;4551;53.164;8.210;2022-07-03T13:21:56;2.83;;;1.53;;
9032;SDS011;4551;53.164;8.210;2022-07-03T13:24:25;2.30;;;1.87;;
9032;SDS011;4551;53.164;8.210;2022-07-03T13:26:54;1.77;;;1.50;;
9032;SDS011;4551;53.164;8.210;2022-07-03T13:29:23;2.67;;;1.80;;
9032;SDS011;4551;53.164;8.210;2022-07-03T13:31:51;2.73;;;2.03;;
9032;SDS011;4551;53.164;8.210;2022-07-03T13:34:20;2.53;;;1.80;;
9032;SDS011;4551;53.164;8.210;2022-07-03T13:36:48;2.40;;;2.00;;
9032;SDS011;4551;53.164;8.210;2022-07-03T13:39:18;5.13;;;2.43;;
9032;SDS011;4551;53.164;8.210;2022-07-03T13:41:46;2.17;;;1.87;;
9032;SDS011;4551;53.164;8.210;2022-07-03T13:44:15;2.10;;;1.90;;
9032;SDS011;4551;53.164;8.210;2022-07-03T13:46:43;2.93;;;1.60;;
9032;SDS011;4551;53.164;8.210;2022-07-03T13:49:17;2.67;;;1.90;;
9032;SDS011;4551;53.164;8.210;2022-07-03T13:51:46;1.80;;;1.63;;
9032;SDS011;4551;53.164;8.210;2022-07-03T13:54:14;2.10;;;1.80;;
9032;SDS011;4551;53.164;8.210;2022-07-03T13:56:44;2.50;;;1.50;;
9032;SDS011;4551;53.164;8.210;2022-07-03T13:59:12;2.63;;;1.40;;
9032;SDS011;4551;53.164;8.210;2022-07-03T14:01:40;2.13;;;1.90;;
9032;SDS011;4551;53.164;8.210;2022-07-03T14:04:09;1.77;;;1.40;;
9032;SDS011;4551;53.164;8.210;2022-07-03T14:06:37;2.20;;;1.63;;
9032;SDS011;4551;53.164;8.210;2022-07-03T14:09:06;3.47;;;1.30;;
9032;SDS011;4551;53.164;8.210;2022-07-03T14:11:34;1.87;;;1.53;;
9032;SDS011;4551;53.164;8.210;2022-07-03T14:14:04;2.10;;;1.40;;
9032;SDS011;4551;53.164;8.210;2022-07-03T14:16:32;1.60;;;1.10;;
9032;SDS011;4551;53.164;8.210;2022-07-03T14:19:01;1.80;;;1.40;;
9032;SDS011;4551;53.164;8.210;2022-07-03T14:21:32;2.13;;;1.40;;
9032;SDS011;4551;53.164;8.210;2022-07-03T14:24:00;2.67;;;1.70;;
9032;SDS011;4551;53.164;8.210;2022-07-03T14:26:28;1.83;;;1.40;;
9032;SDS011;4551;53.164;8.210;2022-07-03T14:29:16;1.93;;;1.13;;
9032;SDS011;4551;53.164;8.210;2022-07-03T14:32:15;2.73;;;1.20;;
9032;SDS011;4551;53.164;8.210;2022-07-03T14:34:56;1.63;;;1.20;;
9032;SDS011;4551;53.164;8.210;2022-07-03T14:37:25;1.90;;;1.00;;
9032;SDS011;4551;53.164;8.210;2022-07-03T14:39:53;1.60;;;1.03;;
9032;SDS011;4551;53.164;8.210;2022-07-03T14:42:22;2.10;;;1.07;;
9032;SDS011;4551;53.164;8.210;2022-07-03T14:44:52;1.30;;;1.20;;
9032;SDS011;4551;53.164;8.210;2022-07-03T14:47:20;1.27;;;1.10;;
9032;SDS011;4551;53.164;8.210;2022-07-03T14:49:49;1.23;;;1.13;;
9032;SDS011;4551;53.164;8.210;2022-07-03T14:52:18;1.70;;;1.20;;
9032;SDS011;4551;53.164;8.210;2022-07-03T14:54:46;1.70;;;1.13;;
9032;SDS011;4551;53.164;8.210;2022-07-03T14:57:20;1.87;;;1.30;;
9032;SDS011;4551;53.164;8.210;2022-07-03T14:59:58;2.07;;;1.50;;
9032;SDS011;4551;53.164;8.210;2022-07-03T15:02:39;1.37;;;1.20;;
9032;SDS011;4551;53.164;8.210;2022-07-03T15:05:12;2.73;;;1.07;;
9032;SDS011;4551;53.164;8.210;2022-07-03T15:07:42;1.77;;;1.27;;
9032;SDS011;4551;53.164;8.210;2022-07-03T15:10:11;1.17;;;0.97;;
9032;SDS011;4551;53.164;8.210;2022-07-03T15:12:42;2.53;;;1.57;;
9032;SDS011;4551;53.164;8.210;2022-07-03T15:15:15;1.00;;;0.90;;
9032;SDS011;4551;53.164;8.210;2022-07-03T15:17:44;0.90;;;0.90;;
9032;SDS011;4551;53.164;8.210;2022-07-03T15:20:17;0.80;;;0.80;;
9032;SDS011;4551;53.164;8.210;2022-07-03T15:22:48;1.17;;;1.07;;
9032;SDS011;4551;53.164;8.210;2022-07-03T15:25:17;2.40;;;1.10;;
9032;SDS011;4551;53.164;8.210;2022-07-03T15:27:49;1.47;;;1.03;;
9032;SDS011;4551;53.164;8.210;2022-07-03T15:30:20;0.90;;;0.90;;
9032;SDS011;4551;53.164;8.210;2022-07-03T15:32:50;1.23;;;1.13;;
9032;SDS011;4551;53.164;8.210;2022-07-03T15:35:20;1.20;;;1.10;;
9032;SDS011;4551;53.164;8.210;2022-07-03T15:37:55;1.10;;;1.00;;
9032;SDS011;4551;53.164;8.210;2022-07-03T15:40:31;1.57;;;0.90;;
9032;SDS011;4551;53.164;8.210;2022-07-03T15:43:04;1.10;;;1.00;;
9032;SDS011;4551;53.164;8.210;2022-07-03T15:45:47;2.60;;;1.23;;
9032;SDS011;4551;53.164;8.210;2022-07-03T15:48:23;1.27;;;1.10;;
9032;SDS011;4551;53.164;8.210;2022-07-03T15:50:59;1.00;;;1.00;;